createdAt,value
2018-05-10T00:01:52.291Z,13.40
2018-05-10T00:04:21.478Z,6.60
2018-05-10T00:06:49.771Z,4.73
2018-05-10T00:09:18.887Z,7.50
2018-05-10T00:11:48.193Z,8.40
2018-05-10T00:14:17.067Z,5.53
2018-05-10T00:16:47.635Z,13.73
2018-05-10T00:19:17.505Z,12.70
2018-05-10T00:21:48.013Z,4.63
2018-05-10T00:24:16.317Z,6.50
2018-05-10T00:26:45.158Z,7.20
2018-05-10T00:29:14.550Z,6.03
2018-05-10T00:31:44.375Z,6.23
2018-05-10T00:34:13.424Z,7.70
2018-05-10T00:36:41.719Z,4.93
2018-05-10T00:39:10.422Z,12.47
2018-05-10T00:41:39.476Z,7.00
2018-05-10T00:44:07.747Z,4.53
2018-05-10T00:46:37.138Z,9.10
2018-05-10T00:49:05.442Z,13.13
2018-05-10T00:51:34.404Z,8.53
2018-05-10T00:54:03.989Z,8.67
2018-05-10T00:56:34.079Z,6.90
2018-05-10T00:59:02.379Z,4.10
2018-05-10T01:01:32.395Z,13.80
2018-05-10T01:04:00.723Z,8.70
2018-05-10T01:06:29.144Z,5.43
2018-05-10T01:08:59.710Z,8.20
2018-05-10T01:11:28.723Z,7.07
2018-05-10T01:13:57.003Z,6.17
2018-05-10T01:16:26.202Z,7.67
2018-05-10T01:18:54.755Z,9.03
2018-05-10T01:21:23.799Z,8.17
2018-05-10T01:23:52.115Z,13.53
2018-05-10T01:26:21.279Z,16.43
2018-05-10T01:28:50.095Z,5.13
2018-05-10T01:31:19.878Z,13.30
2018-05-10T01:33:49.408Z,4.67
2018-05-10T01:36:17.728Z,9.17
2018-05-10T01:38:46.707Z,10.40
2018-05-10T01:41:17.038Z,5.40
2018-05-10T01:43:46.800Z,7.87
2018-05-10T01:46:15.350Z,6.90
2018-05-10T01:48:44.439Z,7.83
2018-05-10T01:51:13.082Z,14.70
2018-05-10T01:53:41.919Z,10.73
2018-05-10T01:56:10.583Z,7.10
2018-05-10T01:58:39.727Z,8.00
2018-05-10T02:01:08.723Z,8.03
2018-05-10T02:03:37.267Z,4.67
2018-05-10T02:06:06.306Z,11.60
2018-05-10T02:08:34.595Z,6.37
2018-05-10T02:11:03.470Z,4.90
2018-05-10T02:13:31.794Z,8.87
2018-05-10T02:16:00.845Z,14.93
2018-05-10T02:18:30.306Z,10.37
2018-05-10T02:20:59.566Z,5.17
2018-05-10T02:23:27.855Z,7.67
2018-05-10T02:25:56.127Z,7.47
2018-05-10T02:28:24.441Z,4.37
2018-05-10T02:30:55.066Z,8.03
2018-05-10T02:33:24.232Z,11.00
2018-05-10T02:35:52.862Z,11.83
2018-05-10T02:38:22.422Z,4.57
2018-05-10T02:40:50.795Z,4.60
2018-05-10T02:43:19.843Z,6.07
2018-05-10T02:45:48.891Z,5.97
2018-05-10T02:48:17.345Z,6.73
2018-05-10T02:50:45.625Z,7.37
2018-05-10T02:53:14.586Z,5.57
2018-05-10T02:55:44.438Z,13.70
2018-05-10T02:58:12.703Z,9.20
2018-05-10T03:00:41.018Z,8.77
2018-05-10T03:03:09.438Z,6.60
2018-05-10T03:05:38.499Z,5.27
2018-05-10T03:08:07.000Z,7.43
2018-05-10T03:10:35.763Z,14.60
2018-05-10T03:13:04.073Z,6.10
2018-05-10T03:15:33.140Z,12.00
2018-05-10T03:18:02.151Z,5.23
2018-05-10T03:20:30.498Z,5.37
2018-05-10T03:22:59.623Z,19.13
2018-05-10T03:25:28.680Z,5.80
2018-05-10T03:27:57.288Z,11.90
2018-05-10T03:30:25.658Z,6.67
2018-05-10T03:32:55.045Z,5.10
2018-05-10T03:35:23.399Z,8.40
2018-05-10T03:37:52.454Z,9.90
2018-05-10T03:40:20.847Z,10.37
2018-05-10T03:42:49.138Z,15.30
2018-05-10T03:45:19.895Z,6.20
2018-05-10T03:47:48.971Z,9.97
2018-05-10T03:50:17.276Z,12.27
2018-05-10T03:52:46.426Z,5.73
2018-05-10T03:55:14.722Z,6.63
2018-05-10T03:57:42.982Z,4.83
2018-05-10T04:00:11.290Z,9.60
2018-05-10T04:06:16.605Z,5.83
2018-05-10T04:09:02.575Z,11.93
2018-05-10T04:11:30.890Z,7.20
2018-05-10T04:14:00.141Z,6.13
2018-05-10T04:16:29.318Z,9.87
2018-05-10T04:18:58.278Z,7.57
2018-05-10T04:21:27.232Z,7.00
2018-05-10T04:23:56.322Z,4.50
2018-05-10T04:26:25.464Z,5.67
2018-05-10T04:28:54.723Z,10.60
2018-05-10T04:31:23.749Z,8.20
2018-05-10T04:33:52.946Z,10.60
2018-05-10T04:36:21.227Z,8.70
2018-05-10T04:38:49.505Z,7.40
2018-05-10T04:41:18.811Z,7.53
2018-05-10T04:43:47.083Z,17.80
2018-05-10T04:46:16.331Z,7.03
2018-05-10T04:48:45.315Z,9.40
2018-05-10T04:51:13.599Z,11.60
2018-05-10T04:53:42.399Z,6.27
2018-05-10T04:56:11.246Z,4.90
2018-05-10T04:58:39.909Z,9.70
2018-05-10T05:01:09.042Z,6.43
2018-05-10T05:03:37.420Z,5.73
2018-05-10T05:06:06.431Z,5.17
2018-05-10T05:08:35.343Z,6.00
2018-05-10T05:11:03.679Z,7.83
2018-05-10T05:13:32.770Z,6.20
2018-05-10T05:16:01.163Z,9.53
2018-05-10T05:18:29.435Z,6.57
2018-05-10T05:20:57.819Z,13.80
2018-05-10T05:23:26.097Z,6.13
2018-05-10T05:25:54.999Z,8.40
2018-05-10T05:28:23.382Z,7.03
2018-05-10T05:30:51.848Z,7.17
2018-05-10T05:33:20.119Z,7.23
2018-05-10T05:35:49.233Z,5.30
2018-05-10T05:38:17.519Z,9.40
2018-05-10T05:40:47.367Z,7.50
2018-05-10T05:43:16.553Z,9.17
2018-05-10T05:45:45.705Z,15.07
2018-05-10T05:48:14.860Z,14.60
2018-05-10T05:50:44.555Z,9.83
2018-05-10T05:53:13.227Z,13.13
2018-05-10T05:55:41.930Z,7.60
2018-05-10T05:58:10.761Z,11.20
2018-05-10T06:00:40.487Z,9.50
2018-05-10T06:03:09.435Z,8.33
2018-05-10T06:05:38.790Z,5.43
2018-05-10T06:08:07.074Z,11.87
2018-05-10T06:10:36.382Z,10.07
2018-05-10T06:13:04.951Z,10.77
2018-05-10T06:15:33.981Z,11.33
2018-05-10T06:18:03.966Z,14.33
2018-05-10T06:20:33.430Z,11.80
2018-05-10T06:23:03.286Z,9.00
2018-05-10T06:25:31.666Z,11.63
2018-05-10T06:27:59.943Z,16.73
2018-05-10T06:30:28.314Z,10.20
2018-05-10T06:32:56.607Z,8.07
2018-05-10T06:35:24.891Z,9.60
2018-05-10T06:37:53.257Z,7.67
2018-05-10T06:40:22.161Z,11.27
2018-05-10T06:42:51.170Z,10.30
2018-05-10T06:45:20.974Z,13.80
2018-05-10T06:47:49.247Z,10.87
2018-05-10T06:50:17.531Z,10.03
2018-05-10T06:52:45.819Z,9.10
2018-05-10T06:55:15.708Z,13.80
2018-05-10T06:57:44.012Z,8.87
2018-05-10T07:00:13.790Z,15.03
2018-05-10T07:02:42.068Z,6.67
2018-05-10T07:05:11.162Z,9.90
2018-05-10T07:07:39.534Z,7.97
2018-05-10T07:10:08.805Z,9.13
2018-05-10T07:12:38.419Z,8.53
2018-05-10T07:15:08.916Z,9.70
2018-05-10T07:17:37.986Z,13.97
2018-05-10T07:20:07.760Z,9.20
2018-05-10T07:22:36.790Z,8.57
2018-05-10T07:25:06.042Z,9.73
2018-05-10T07:27:35.651Z,16.77
2018-05-10T07:30:05.078Z,13.37
2018-05-10T07:32:34.297Z,21.10
2018-05-10T07:35:02.588Z,13.73
2018-05-10T07:37:32.333Z,15.50
2018-05-10T07:40:02.032Z,16.37
2018-05-10T07:42:31.908Z,16.00
2018-05-10T07:45:00.323Z,21.83
2018-05-10T07:47:28.674Z,11.40
2018-05-10T07:49:57.158Z,15.77
2018-05-10T07:52:25.960Z,17.60
2018-05-10T07:54:54.626Z,13.60
2018-05-10T07:57:24.473Z,17.17
2018-05-10T07:59:55.494Z,13.67
2018-05-10T08:02:23.898Z,12.13
2018-05-10T08:04:53.414Z,18.17
2018-05-10T08:07:22.464Z,8.87
2018-05-10T08:09:51.074Z,17.53
2018-05-10T08:12:20.785Z,39.10
2018-05-10T08:14:49.552Z,17.73
2018-05-10T08:17:18.595Z,15.43
2018-05-10T08:19:47.030Z,12.47
2018-05-10T08:22:15.816Z,12.47
2018-05-10T08:24:44.101Z,13.30
2018-05-10T08:27:13.174Z,17.13
2018-05-10T08:29:41.982Z,13.60
2018-05-10T08:32:11.261Z,9.30
2018-05-10T08:34:40.303Z,12.23
2018-05-10T08:37:08.660Z,11.27
2018-05-10T08:39:37.062Z,11.53
2018-05-10T08:42:05.338Z,9.30
2018-05-10T08:44:34.519Z,7.03
2018-05-10T08:47:03.554Z,8.60
2018-05-10T08:49:32.040Z,12.63
2018-05-10T08:52:01.114Z,16.03
2018-05-10T08:54:29.475Z,6.83
2018-05-10T08:56:58.509Z,13.00
2018-05-10T08:59:26.970Z,10.43
2018-05-10T09:01:55.274Z,15.87
2018-05-10T09:04:23.643Z,14.20
2018-05-10T09:06:51.914Z,13.60
2018-05-10T09:09:20.843Z,8.60
2018-05-10T09:11:50.107Z,8.10
2018-05-10T09:14:18.397Z,9.70
2018-05-10T09:16:49.448Z,12.13
2018-05-10T09:19:17.739Z,10.07
2018-05-10T09:21:46.802Z,12.77
2018-05-10T09:24:15.787Z,7.20
2018-05-10T09:26:45.650Z,7.73
2018-05-10T09:29:15.107Z,13.00
2018-05-10T09:31:43.409Z,16.80
2018-05-10T09:34:11.702Z,9.73
2018-05-10T09:36:40.869Z,11.50
2018-05-10T09:39:09.175Z,14.00
2018-05-10T09:41:37.889Z,11.00
2018-05-10T09:44:06.199Z,9.50
2018-05-10T09:46:34.467Z,10.37
2018-05-10T09:49:03.047Z,9.37
2018-05-10T09:51:31.651Z,11.13
2018-05-10T09:54:00.552Z,8.20
2018-05-10T09:56:29.134Z,15.20
2018-05-10T09:58:57.709Z,13.93
2018-05-10T10:01:26.016Z,17.53
2018-05-10T10:03:54.668Z,13.43
2018-05-10T10:06:23.055Z,16.83
2018-05-10T10:08:51.332Z,17.50
2018-05-10T10:11:19.693Z,10.80
2018-05-10T10:13:48.063Z,12.20
2018-05-10T10:16:16.383Z,11.57
2018-05-10T10:18:44.751Z,7.90
2018-05-10T10:21:13.946Z,10.80
2018-05-10T10:23:43.389Z,12.03
2018-05-10T10:26:13.151Z,10.73
2018-05-10T10:28:41.438Z,10.20
2018-05-10T10:31:09.762Z,12.30
2018-05-10T10:33:38.579Z,16.90
2018-05-10T10:36:08.910Z,12.90
2018-05-10T10:38:38.151Z,8.30
2018-05-10T10:41:06.439Z,11.97
2018-05-10T10:43:35.626Z,13.33
2018-05-10T10:46:04.683Z,20.80
2018-05-10T10:48:33.162Z,14.97
2018-05-10T10:51:02.906Z,13.70
2018-05-10T10:53:32.224Z,14.63
2018-05-10T10:56:03.395Z,20.73
2018-05-10T10:58:31.768Z,18.47
2018-05-10T11:01:00.960Z,7.37
2018-05-10T11:03:30.738Z,17.43
2018-05-10T11:05:59.036Z,13.03
2018-05-10T11:08:27.314Z,13.20
2018-05-10T11:10:55.830Z,17.40
2018-05-10T11:13:25.754Z,14.67
2018-05-10T11:15:55.336Z,16.53
2018-05-10T11:18:23.647Z,15.03
2018-05-10T11:20:53.898Z,16.23
2018-05-10T11:23:22.174Z,23.23
2018-05-10T11:25:50.455Z,11.83
2018-05-10T11:28:18.961Z,15.90
2018-05-10T11:30:47.298Z,11.13
2018-05-10T11:33:15.633Z,12.50
2018-05-10T11:35:43.990Z,19.47
2018-05-10T11:38:12.379Z,8.80
2018-05-10T11:40:40.735Z,7.93
2018-05-10T11:43:09.631Z,11.13
2018-05-10T11:45:37.955Z,12.63
2018-05-10T11:48:06.430Z,12.43
2018-05-10T11:50:34.979Z,11.77
2018-05-10T11:53:04.803Z,12.57
2018-05-10T11:55:33.083Z,8.73
2018-05-10T11:58:02.176Z,19.13
2018-05-10T12:00:30.464Z,9.67
2018-05-10T12:02:58.788Z,23.57
2018-05-10T12:05:27.871Z,7.57
2018-05-10T12:07:56.924Z,14.60
2018-05-10T12:10:25.319Z,21.67
2018-05-10T12:12:53.590Z,16.23
2018-05-10T12:15:22.186Z,11.07
2018-05-10T12:17:50.640Z,23.40
2018-05-10T12:20:19.742Z,23.73
2018-05-10T12:22:48.431Z,22.50
2018-05-10T12:25:17.179Z,16.47
2018-05-10T12:27:46.306Z,12.03
2018-05-10T12:30:14.580Z,17.57
2018-05-10T12:32:42.879Z,13.87
2018-05-10T12:35:12.226Z,13.17
2018-05-10T12:37:42.570Z,19.33
2018-05-10T12:40:11.300Z,16.33
2018-05-10T12:42:39.634Z,21.87
2018-05-10T12:45:07.912Z,31.23
2018-05-10T12:47:36.708Z,20.27
2018-05-10T12:50:05.027Z,25.90
2018-05-10T12:52:33.862Z,67.23
2018-05-10T12:55:03.752Z,99.87
2018-05-10T12:57:32.211Z,187.20
2018-05-10T13:00:00.879Z,444.03
2018-05-10T13:02:29.169Z,359.00
2018-05-10T13:04:57.835Z,434.60
2018-05-10T13:07:26.124Z,474.83
2018-05-10T13:09:54.523Z,358.47
2018-05-10T13:12:23.277Z,303.97
2018-05-10T13:14:51.964Z,317.93
2018-05-10T13:17:20.694Z,273.50
2018-05-10T13:19:49.614Z,246.63
2018-05-10T13:22:20.111Z,222.57
2018-05-10T13:24:49.034Z,233.70
2018-05-10T13:27:18.152Z,223.87
2018-05-10T13:29:48.055Z,213.83
2018-05-10T13:32:17.741Z,247.07
2018-05-10T13:34:46.115Z,216.57
2018-05-10T13:37:14.529Z,204.03
2018-05-10T13:39:42.959Z,237.40
2018-05-10T13:42:11.289Z,245.00
2018-05-10T13:44:40.358Z,267.67
2018-05-10T13:47:10.127Z,265.90
2018-05-10T13:49:39.160Z,255.03
2018-05-10T13:52:07.479Z,306.00
2018-05-10T13:54:36.151Z,263.07
2018-05-10T13:57:05.610Z,265.30
2018-05-10T13:59:33.922Z,271.93
2018-05-10T14:02:02.460Z,293.73
2018-05-10T14:04:31.391Z,288.37
2018-05-10T14:07:00.489Z,291.37
2018-05-10T14:09:28.854Z,261.77
2018-05-10T14:11:57.239Z,270.77
2018-05-10T14:14:26.071Z,325.40
2018-05-10T14:16:55.214Z,274.90
2018-05-10T14:19:23.565Z,288.03
2018-05-10T14:21:52.364Z,352.10
2018-05-10T14:24:20.688Z,252.47
2018-05-10T14:26:49.752Z,285.70
2018-05-10T14:29:18.100Z,228.07
2018-05-10T14:31:46.403Z,180.00
2018-05-10T14:34:15.105Z,196.10
2018-05-10T14:36:43.971Z,200.07
2018-05-10T14:39:12.293Z,198.87
2018-05-10T14:41:41.174Z,201.10
2018-05-10T14:44:10.037Z,167.33
2018-05-10T14:46:38.372Z,161.23
2018-05-10T14:49:06.706Z,172.33
2018-05-10T14:51:35.028Z,152.90
2018-05-10T14:54:04.124Z,158.03
2018-05-10T14:56:33.063Z,183.37
2018-05-10T14:59:01.464Z,194.80
2018-05-10T15:01:29.834Z,170.87
2018-05-10T15:03:58.140Z,126.03
2018-05-10T15:06:26.452Z,136.50
2018-05-10T15:08:55.600Z,133.40
2018-05-10T15:11:23.967Z,127.87
2018-05-10T15:13:52.365Z,116.73
2018-05-10T15:16:21.724Z,133.27
2018-05-10T15:18:51.395Z,109.30
2018-05-10T15:21:19.887Z,100.80
2018-05-10T15:23:48.980Z,107.30
2018-05-10T15:26:18.027Z,112.63
2018-05-10T15:28:46.599Z,129.73
2018-05-10T15:31:16.219Z,118.30
2018-05-10T15:33:44.777Z,109.73
2018-05-10T15:36:13.901Z,110.23
2018-05-10T15:38:42.391Z,133.30
2018-05-10T15:41:10.663Z,93.07
2018-05-10T15:43:39.370Z,95.97
2018-05-10T15:46:08.059Z,118.37
2018-05-10T15:48:36.340Z,75.57
2018-05-10T15:51:04.790Z,80.80
2018-05-10T15:53:33.088Z,67.30
2018-05-10T15:56:01.372Z,73.90
2018-05-10T15:58:30.044Z,56.57
2018-05-10T16:00:58.356Z,43.77
2018-05-10T16:03:27.794Z,64.00
2018-05-10T16:05:57.532Z,52.50
2018-05-10T16:08:25.840Z,41.67
2018-05-10T16:10:54.207Z,46.60
2018-05-10T16:13:22.955Z,46.03
2018-05-10T16:15:51.235Z,38.50
2018-05-10T16:18:19.544Z,38.03
2018-05-10T16:20:48.413Z,31.23
2018-05-10T16:23:17.455Z,25.80
2018-05-10T16:25:45.743Z,24.90
2018-05-10T16:28:14.094Z,24.03
2018-05-10T16:30:42.406Z,24.60
2018-05-10T16:33:11.120Z,23.93
2018-05-10T16:35:40.208Z,24.67
2018-05-10T16:38:10.679Z,26.13
2018-05-10T16:40:39.903Z,18.63
2018-05-10T16:43:08.175Z,22.73
2018-05-10T16:45:36.489Z,27.93
2018-05-10T16:48:05.539Z,27.27
2018-05-10T16:50:34.212Z,19.37
2018-05-10T16:53:03.901Z,37.13
2018-05-10T16:55:33.783Z,19.27
2018-05-10T16:58:02.455Z,22.30
2018-05-10T17:00:31.540Z,25.80
2018-05-10T17:03:00.139Z,22.83
2018-05-10T17:05:29.812Z,15.23
2018-05-10T17:07:58.118Z,20.43
2018-05-10T17:10:26.394Z,19.87
2018-05-10T17:12:56.059Z,21.17
2018-05-10T17:15:24.463Z,22.97
2018-05-10T17:17:53.551Z,15.90
2018-05-10T17:20:21.851Z,25.50
2018-05-10T17:22:50.357Z,22.70
2018-05-10T17:25:18.866Z,34.37
2018-05-10T17:27:47.919Z,23.73
2018-05-10T17:30:17.184Z,13.93
2018-05-10T17:32:45.490Z,26.77
2018-05-10T17:35:13.962Z,17.70
2018-05-10T17:37:42.632Z,31.40
2018-05-10T17:40:11.471Z,17.40
2018-05-10T17:42:40.544Z,20.10
2018-05-10T17:45:09.051Z,19.80
2018-05-10T17:47:37.544Z,22.10
2018-05-10T17:50:06.004Z,18.53
2018-05-10T17:52:34.307Z,30.83
2018-05-10T17:55:02.638Z,22.97
2018-05-10T17:57:31.142Z,35.63
2018-05-10T17:59:59.910Z,23.17
2018-05-10T18:02:28.978Z,21.10
2018-05-10T18:04:59.611Z,19.03
2018-05-10T18:07:28.575Z,16.20
2018-05-10T18:09:56.868Z,21.87
2018-05-10T18:12:25.939Z,26.17
2018-05-10T18:14:54.444Z,31.77
2018-05-10T18:17:23.518Z,39.17
2018-05-10T18:19:51.819Z,27.00
2018-05-10T18:22:20.875Z,24.77
2018-05-10T18:24:49.150Z,20.00
2018-05-10T18:27:18.473Z,27.93
2018-05-10T18:29:47.845Z,23.77
2018-05-10T18:32:16.164Z,18.63
2018-05-10T18:34:44.503Z,21.27
2018-05-10T18:37:12.787Z,28.27
2018-05-10T18:39:41.182Z,21.20
2018-05-10T18:42:09.575Z,23.57
2018-05-10T18:44:37.858Z,16.60
2018-05-10T18:47:06.198Z,16.33
2018-05-10T18:49:35.754Z,25.93
2018-05-10T18:52:04.059Z,24.43
2018-05-10T18:54:32.421Z,28.40
2018-05-10T18:57:02.243Z,14.70
2018-05-10T18:59:31.319Z,21.33
2018-05-10T19:01:59.867Z,15.00
2018-05-10T19:04:28.781Z,23.83
2018-05-10T19:06:57.079Z,20.27
2018-05-10T19:09:27.092Z,10.07
2018-05-10T19:11:55.782Z,19.77
2018-05-10T19:14:24.912Z,14.00
2018-05-10T19:16:53.211Z,15.30
2018-05-10T19:19:22.111Z,13.23
2018-05-10T19:21:51.144Z,14.77
2018-05-10T19:24:20.763Z,22.23
2018-05-10T19:26:49.850Z,24.50
2018-05-10T19:29:19.633Z,20.83
2018-05-10T19:31:48.605Z,17.53
2018-05-10T19:34:16.938Z,20.47
2018-05-10T19:36:45.900Z,14.90
2018-05-10T19:39:15.241Z,23.80
2018-05-10T19:41:44.321Z,25.20
2018-05-10T19:44:12.618Z,17.13
2018-05-10T19:46:40.923Z,12.47
2018-05-10T19:49:09.222Z,14.40
2018-05-10T19:51:38.135Z,12.53
2018-05-10T19:54:06.487Z,9.70
2018-05-10T19:56:35.722Z,14.43
2018-05-10T19:59:04.564Z,17.43
2018-05-10T20:01:33.267Z,10.63
2018-05-10T20:04:02.452Z,13.83
2018-05-10T20:06:30.732Z,20.37
2018-05-10T20:08:59.136Z,16.17
2018-05-10T20:11:27.530Z,26.37
2018-05-10T20:13:55.818Z,20.13
2018-05-10T20:16:24.459Z,13.30
2018-05-10T20:18:53.100Z,29.43
2018-05-10T20:21:21.403Z,13.13
2018-05-10T20:23:50.199Z,11.80
2018-05-10T20:26:18.863Z,12.53
2018-05-10T20:28:47.928Z,14.73
2018-05-10T20:31:16.247Z,18.53
2018-05-10T20:33:45.398Z,23.33
2018-05-10T20:36:13.680Z,21.27
2018-05-10T20:38:42.858Z,19.57
2018-05-10T20:41:11.150Z,16.47
2018-05-10T20:43:39.498Z,15.57
2018-05-10T20:46:08.060Z,22.33
2018-05-10T20:48:37.131Z,11.33
2018-05-10T20:51:06.590Z,8.63
2018-05-10T20:53:34.904Z,8.23
2018-05-10T20:56:03.951Z,11.47
2018-05-10T20:58:32.274Z,19.83
2018-05-10T21:01:01.387Z,18.23
2018-05-10T21:03:29.687Z,18.77
2018-05-10T21:05:58.780Z,16.03
2018-05-10T21:08:27.844Z,7.23
2018-05-10T21:10:56.222Z,25.10
2018-05-10T21:13:24.523Z,19.77
2018-05-10T21:15:53.221Z,17.90
2018-05-10T21:18:22.879Z,14.63
2018-05-10T21:20:52.699Z,13.03
2018-05-10T21:23:21.727Z,16.57
2018-05-10T21:25:50.018Z,10.33
2018-05-10T21:28:19.159Z,12.30
2018-05-10T21:30:49.032Z,12.23
2018-05-10T21:33:18.123Z,16.00
2018-05-10T21:35:47.186Z,28.07
2018-05-10T21:38:15.688Z,11.70
2018-05-10T21:40:43.963Z,17.13
2018-05-10T21:43:12.560Z,15.70
2018-05-10T21:45:41.155Z,21.97
2018-05-10T21:48:10.206Z,14.10
2018-05-10T21:50:38.846Z,14.27
2018-05-10T21:53:07.974Z,22.50
2018-05-10T21:55:36.259Z,14.73
2018-05-10T21:58:04.779Z,17.50
2018-05-10T22:00:33.681Z,23.60
2018-05-10T22:03:02.746Z,14.10
2018-05-10T22:05:31.418Z,13.43
2018-05-10T22:07:59.710Z,11.43
2018-05-10T22:10:28.595Z,23.60
2018-05-10T22:12:57.156Z,28.97
2018-05-10T22:15:25.448Z,16.63
2018-05-10T22:17:53.822Z,16.70
2018-05-10T22:20:22.406Z,16.03
2018-05-10T22:22:50.695Z,19.77
2018-05-10T22:25:20.290Z,19.30
2018-05-10T22:27:48.578Z,17.07
2018-05-10T22:30:16.886Z,13.93
2018-05-10T22:32:45.240Z,19.10
2018-05-10T22:35:13.578Z,14.27
2018-05-10T22:37:41.827Z,24.23
2018-05-10T22:40:10.375Z,16.73
2018-05-10T22:42:38.679Z,15.33
2018-05-10T22:45:06.980Z,13.70
2018-05-10T22:47:35.259Z,19.43
2018-05-10T22:50:04.362Z,13.00
2018-05-10T22:52:33.407Z,23.60
2018-05-10T22:55:01.688Z,10.40
2018-05-10T22:57:29.999Z,12.03
2018-05-10T22:59:58.336Z,14.50
2018-05-10T23:02:26.625Z,14.47
2018-05-10T23:04:56.569Z,22.63
2018-05-10T23:07:24.923Z,21.70
2018-05-10T23:09:53.204Z,18.63
2018-05-10T23:12:21.987Z,15.63
2018-05-10T23:14:50.836Z,13.30
2018-05-10T23:17:19.879Z,19.13
2018-05-10T23:19:49.118Z,23.37
2018-05-10T23:22:18.754Z,15.87
2018-05-10T23:24:47.149Z,18.50
2018-05-10T23:27:16.495Z,20.00
2018-05-10T23:29:44.899Z,16.30
2018-05-10T23:32:14.056Z,13.50
2018-05-10T23:34:43.695Z,21.30
2018-05-10T23:37:12.775Z,21.97
2018-05-10T23:39:41.607Z,16.30
2018-05-10T23:42:11.479Z,12.90
2018-05-10T23:44:39.831Z,17.30
2018-05-10T23:47:08.773Z,14.40
2018-05-10T23:49:38.643Z,21.87
2018-05-10T23:52:06.952Z,17.60
2018-05-10T23:54:35.226Z,13.87
2018-05-10T23:57:03.747Z,23.57
2018-05-10T23:59:32.527Z,14.90
